sensor_id;sensor_type;location;lat;lon;timestamp;pressure;altitude;pressure_sealevel;temperature;humidity
56270;BME280;42176;43.240;27.880;2023-11-21T00:00:59;99939.31;;;5.61;100.00
56270;BME280;42176;43.240;27.880;2023-11-21T00:03:01;99949.75;;;5.77;100.00
56270;BME280;42176;43.240;27.880;2023-11-21T00:05:02;99949.47;;;6.27;100.00
56270;BME280;42176;43.240;27.880;2023-11-21T00:07:03;99935.63;;;5.93;100.00
56270;BME280;42176;43.240;27.880;2023-11-21T00:09:06;99943.63;;;5.79;100.00
56270;BME280;42176;43.240;27.880;2023-11-21T00:11:08;99939.19;;;5.89;100.00
56270;BME280;42176;43.240;27.880;2023-11-21T00:13:09;99947.00;;;6.03;100.00
56270;BME280;42176;43.240;27.880;2023-11-21T00:15:12;99942.31;;;6.44;100.00
56270;BME280;42176;43.240;27.880;2023-11-21T00:17:13;99944.53;;;5.71;100.00
56270;BME280;42176;43.240;27.880;2023-11-21T00:19:13;99941.19;;;5.38;100.00
56270;BME280;42176;43.240;27.880;2023-11-21T00:21:14;99949.03;;;5.42;100.00
56270;BME280;42176;43.240;27.880;2023-11-21T00:23:15;99954.28;;;5.48;100.00
56270;BME280;42176;43.240;27.880;2023-11-21T00:25:15;99957.75;;;5.55;100.00
56270;BME280;42176;43.240;27.880;2023-11-21T00:27:17;99944.44;;;5.89;100.00
56270;BME280;42176;43.240;27.880;2023-11-21T00:29:18;99905.34;;;5.13;100.00
56270;BME280;42176;43.240;27.880;2023-11-21T00:31:18;99950.94;;;4.94;100.00
56270;BME280;42176;43.240;27.880;2023-11-21T00:33:19;99956.19;;;5.03;100.00
56270;BME280;42176;43.240;27.880;2023-11-21T00:35:19;99958.78;;;5.11;100.00
56270;BME280;42176;43.240;27.880;2023-11-21T00:37:20;99965.75;;;5.21;100.00
56270;BME280;42176;43.240;27.880;2023-11-21T00:39:20;99964.00;;;5.29;100.00
56270;BME280;42176;43.240;27.880;2023-11-21T00:41:21;99960.25;;;5.83;100.00
56270;BME280;42176;43.240;27.880;2023-11-21T00:43:24;99954.34;;;5.33;100.00
56270;BME280;42176;43.240;27.880;2023-11-21T00:45:25;99958.81;;;4.92;100.00
56270;BME280;42176;43.240;27.880;2023-11-21T00:47:26;99971.09;;;4.93;100.00
56270;BME280;42176;43.240;27.880;2023-11-21T00:49:27;99964.06;;;4.95;100.00
56270;BME280;42176;43.240;27.880;2023-11-21T00:51:28;99965.84;;;4.96;100.00
56270;BME280;42176;43.240;27.880;2023-11-21T00:53:28;99965.81;;;5.02;100.00
56270;BME280;42176;43.240;27.880;2023-11-21T00:55:29;99963.88;;;5.60;100.00
56270;BME280;42176;43.240;27.880;2023-11-21T00:57:30;99966.63;;;5.25;100.00
56270;BME280;42176;43.240;27.880;2023-11-21T00:59:31;99958.81;;;4.92;100.00
56270;BME280;42176;43.240;27.880;2023-11-21T01:01:31;99957.09;;;4.90;100.00
56270;BME280;42176;43.240;27.880;2023-11-21T01:03:32;99955.31;;;4.93;100.00
56270;BME280;42176;43.240;27.880;2023-11-21T01:05:32;99964.03;;;5.01;100.00
56270;BME280;42176;43.240;27.880;2023-11-21T01:07:33;99957.81;;;5.43;100.00
56270;BME280;42176;43.240;27.880;2023-11-21T01:09:33;99951.81;;;4.94;100.00
56270;BME280;42176;43.240;27.880;2023-11-21T01:11:34;99960.56;;;4.87;100.00
56270;BME280;42176;43.240;27.880;2023-11-21T01:13:38;99959.72;;;4.86;100.00
56270;BME280;42176;43.240;27.880;2023-11-21T01:15:39;99964.06;;;4.89;100.00
56270;BME280;42176;43.240;27.880;2023-11-21T01:17:39;99962.31;;;4.85;100.00
56270;BME280;42176;43.240;27.880;2023-11-21T01:19:41;99961.44;;;4.94;100.00
56270;BME280;42176;43.240;27.880;2023-11-21T01:21:41;99957.03;;;5.00;100.00
56270;BME280;42176;43.240;27.880;2023-11-21T01:23:42;99957.91;;;5.09;100.00
56270;BME280;42176;43.240;27.880;2023-11-21T01:25:44;99948.19;;;5.32;100.00
56270;BME280;42176;43.240;27.880;2023-11-21T01:27:44;99941.34;;;4.69;100.00
56270;BME280;42176;43.240;27.880;2023-11-21T01:29:45;99951.88;;;4.35;100.00
56270;BME280;42176;43.240;27.880;2023-11-21T01:31:45;99960.59;;;4.47;100.00
56270;BME280;42176;43.240;27.880;2023-11-21T01:33:46;99961.47;;;4.46;100.00
56270;BME280;42176;43.240;27.880;2023-11-21T01:35:47;99950.13;;;4.50;100.00
56270;BME280;42176;43.240;27.880;2023-11-21T01:37:47;99955.34;;;4.81;100.00
56270;BME280;42176;43.240;27.880;2023-11-21T01:39:48;99946.59;;;4.23;100.00
56270;BME280;42176;43.240;27.880;2023-11-21T01:41:52;99946.56;;;4.01;100.00
56270;BME280;42176;43.240;27.880;2023-11-21T01:43:52;99957.94;;;4.13;100.00
56270;BME280;42176;43.240;27.880;2023-11-21T01:45:54;99974.59;;;4.55;100.00
56270;BME280;42176;43.240;27.880;2023-11-21T01:47:57;99968.50;;;4.34;100.00
56270;BME280;42176;43.240;27.880;2023-11-21T01:50:01;99955.28;;;3.81;100.00
56270;BME280;42176;43.240;27.880;2023-11-21T01:52:05;99965.66;;;3.60;100.00
56270;BME280;42176;43.240;27.880;2023-11-21T01:54:06;99955.25;;;3.69;100.00
56270;BME280;42176;43.240;27.880;2023-11-21T01:56:08;99957.09;;;4.14;100.00
56270;BME280;42176;43.240;27.880;2023-11-21T01:58:10;99950.94;;;4.21;100.00
56270;BME280;42176;43.240;27.880;2023-11-21T02:00:13;99946.53;;;3.83;100.00
56270;BME280;42176;43.240;27.880;2023-11-21T02:02:16;99945.69;;;3.87;100.00
56270;BME280;42176;43.240;27.880;2023-11-21T02:04:17;99947.41;;;3.91;100.00
56270;BME280;42176;43.240;27.880;2023-11-21T02:06:18;99950.94;;;4.02;100.00
56270;BME280;42176;43.240;27.880;2023-11-21T02:08:19;99957.13;;;4.63;100.00
56270;BME280;42176;43.240;27.880;2023-11-21T02:10:20;99946.59;;;4.23;100.00
56270;BME280;42176;43.240;27.880;2023-11-21T02:12:23;99941.25;;;3.67;100.00
56270;BME280;42176;43.240;27.880;2023-11-21T02:14:27;99947.41;;;3.86;100.00
56270;BME280;42176;43.240;27.880;2023-11-21T02:16:28;99957.06;;;3.98;100.00
56270;BME280;42176;43.240;27.880;2023-11-21T02:18:31;99962.34;;;4.54;100.00
56270;BME280;42176;43.240;27.880;2023-11-21T02:20:32;99950.06;;;3.97;100.00
56270;BME280;42176;43.240;27.880;2023-11-21T02:22:37;99941.22;;;3.58;100.00
56270;BME280;42176;43.240;27.880;2023-11-21T02:24:41;99957.88;;;3.74;100.00
56270;BME280;42176;43.240;27.880;2023-11-21T02:26:42;99964.03;;;3.88;100.00
56270;BME280;42176;43.240;27.880;2023-11-21T02:28:43;99962.31;;;3.98;100.00
56270;BME280;42176;43.240;27.880;2023-11-21T02:30:43;99972.84;;;4.38;100.00
56270;BME280;42176;43.240;27.880;2023-11-21T02:32:44;99964.97;;;4.60;100.00
56270;BME280;42176;43.240;27.880;2023-11-21T02:34:45;99950.94;;;4.21;100.00
56270;BME280;42176;43.240;27.880;2023-11-21T02:36:45;99960.59;;;4.19;100.00
56270;BME280;42176;43.240;27.880;2023-11-21T02:38:47;99951.84;;;4.24;100.00
56270;BME280;42176;43.240;27.880;2023-11-21T02:40:48;99959.72;;;4.37;100.00
56270;BME280;42176;43.240;27.880;2023-11-21T02:42:49;99936.91;;;4.95;100.00
56270;BME280;42176;43.240;27.880;2023-11-21T02:44:53;99951.81;;;4.77;100.00
56270;BME280;42176;43.240;27.880;2023-11-21T02:46:53;99954.47;;;4.31;100.00
56270;BME280;42176;43.240;27.880;2023-11-21T02:48:54;99951.84;;;4.41;100.00
56270;BME280;42176;43.240;27.880;2023-11-21T02:50:55;99962.34;;;4.54;100.00
56270;BME280;42176;43.240;27.880;2023-11-21T02:52:56;99952.63;;;5.18;100.00
56270;BME280;42176;43.240;27.880;2023-11-21T02:55:03;99941.28;;;5.10;100.00
56270;BME280;42176;43.240;27.880;2023-11-21T02:57:04;99948.34;;;4.61;100.00
56270;BME280;42176;43.240;27.880;2023-11-21T02:59:04;99954.47;;;4.74;100.00
56270;BME280;42176;43.240;27.880;2023-11-21T03:01:05;99953.56;;;4.83;100.00
56270;BME280;42176;43.240;27.880;2023-11-21T03:03:06;99963.19;;;4.92;100.00
56270;BME280;42176;43.240;27.880;2023-11-21T03:05:06;99964.00;;;5.23;100.00
56270;BME280;42176;43.240;27.880;2023-11-21T03:07:09;99953.44;;;5.32;100.00
56270;BME280;42176;43.240;27.880;2023-11-21T03:09:10;99962.34;;;4.79;100.00
56270;BME280;42176;43.240;27.880;2023-11-21T03:11:12;99960.63;;;4.65;100.00
56270;BME280;42176;43.240;27.880;2023-11-21T03:13:13;99954.47;;;4.68;100.00
56270;BME280;42176;43.240;27.880;2023-11-21T03:15:14;99929.09;;;4.53;100.00
56270;BME280;42176;43.240;27.880;2023-11-21T03:17:15;99966.63;;;5.17;100.00
56270;BME280;42176;43.240;27.880;2023-11-21T03:19:15;99958.88;;;4.49;100.00
56270;BME280;42176;43.240;27.880;2023-11-21T03:21:16;99974.59;;;4.27;100.00
56270;BME280;42176;43.240;27.880;2023-11-21T03:23:16;99976.34;;;4.34;100.00
56270;BME280;42176;43.240;27.880;2023-11-21T03:25:17;99973.75;;;4.42;100.00
56270;BME280;42176;43.240;27.880;2023-11-21T03:27:17;99980.69;;;4.99;100.00
56270;BME280;42176;43.240;27.880;2023-11-21T03:29:18;99967.63;;;4.51;100.00
56270;BME280;42176;43.240;27.880;2023-11-21T03:31:19;99958.81;;;4.11;100.00
56270;BME280;42176;43.240;27.880;2023-11-21T03:33:20;99960.59;;;4.26;100.00
56270;BME280;42176;43.240;27.880;2023-11-21T03:35:20;99974.59;;;4.46;100.00
56270;BME280;42176;43.240;27.880;2023-11-21T03:37:21;99972.78;;;5.19;100.00
56270;BME280;42176;43.240;27.880;2023-11-21T03:39:22;99959.69;;;4.97;100.00
56270;BME280;42176;43.240;27.880;2023-11-21T03:41:23;99960.63;;;4.65;100.00
56270;BME280;42176;43.240;27.880;2023-11-21T03:43:23;99967.59;;;4.76;100.00
56270;BME280;42176;43.240;27.880;2023-11-21T03:45:25;99953.56;;;4.83;100.00
56270;BME280;42176;43.240;27.880;2023-11-21T03:47:28;99954.25;;;5.50;100.00
56270;BME280;42176;43.240;27.880;2023-11-21T03:49:29;99950.75;;;5.48;100.00
56270;BME280;42176;43.240;27.880;2023-11-21T03:51:29;99945.69;;;4.83;100.00
56270;BME280;42176;43.240;27.880;2023-11-21T03:53:30;99945.69;;;4.83;100.00
56270;BME280;42176;43.240;27.880;2023-11-21T03:55:30;99960.53;;;5.12;100.00
56270;BME280;42176;43.240;27.880;2023-11-21T03:57:31;99956.88;;;5.56;100.00
56270;BME280;42176;43.240;27.880;2023-11-21T03:59:32;99950.56;;;5.90;100.00
56270;BME280;42176;43.240;27.880;2023-11-21T04:01:32;99953.44;;;5.32;100.00
56270;BME280;42176;43.240;27.880;2023-11-21T04:03:33;99953.53;;;5.01;100.00
56270;BME280;42176;43.240;27.880;2023-11-21T04:05:33;99964.00;;;5.14;100.00
56270;BME280;42176;43.240;27.880;2023-11-21T04:07:34;99960.47;;;5.33;100.00
56270;BME280;42176;43.240;27.880;2023-11-21T04:09:35;99954.06;;;5.95;100.00
56270;BME280;42176;43.240;27.880;2023-11-21T04:11:36;99959.53;;;5.48;100.00
56270;BME280;42176;43.240;27.880;2023-11-21T04:13:38;99965.75;;;5.18;100.00
56270;BME280;42176;43.240;27.880;2023-11-21T04:15:39;99954.38;;;5.25;100.00
56270;BME280;42176;43.240;27.880;2023-11-21T04:17:39;99953.44;;;5.32;100.00
56270;BME280;42176;43.240;27.880;2023-11-21T04:19:40;99955.16;;;5.49;100.00
56270;BME280;42176;43.240;27.880;2023-11-21T04:21:41;99947.72;;;6.25;100.00
56270;BME280;42176;43.240;27.880;2023-11-21T04:23:42;99947.91;;;6.01;100.00
56270;BME280;42176;43.240;27.880;2023-11-21T04:25:43;99943.72;;;5.59;100.00
56270;BME280;42176;43.240;27.880;2023-11-21T04:27:44;99946.38;;;5.56;100.00
56270;BME280;42176;43.240;27.880;2023-11-21T04:29:45;99953.31;;;5.70;100.00
56270;BME280;42176;43.240;27.880;2023-11-21T04:31:46;99954.66;;;6.39;100.00
56270;BME280;42176;43.240;27.880;2023-11-21T04:33:46;99947.13;;;5.77;100.00
56270;BME280;42176;43.240;27.880;2023-11-21T04:35:47;99939.38;;;5.49;100.00
56270;BME280;42176;43.240;27.880;2023-11-21T04:37:48;99946.34;;;5.61;100.00
56270;BME280;42176;43.240;27.880;2023-11-21T04:39:49;99952.97;;;6.32;100.00
56270;BME280;42176;43.240;27.880;2023-11-21T04:41:50;99953.22;;;5.91;100.00
56270;BME280;42176;43.240;27.880;2023-11-21T04:43:50;99955.19;;;5.37;100.00
56270;BME280;42176;43.240;27.880;2023-11-21T04:45:51;99959.63;;;5.28;100.00
56270;BME280;42176;43.240;27.880;2023-11-21T04:47:52;99968.34;;;5.35;100.00
56270;BME280;42176;43.240;27.880;2023-11-21T04:49:53;99970.91;;;5.49;100.00
56270;BME280;42176;43.240;27.880;2023-11-21T04:51:53;99956.69;;;5.93;100.00
56270;BME280;42176;43.240;27.880;2023-11-21T04:53:54;99960.47;;;5.33;100.00
56270;BME280;42176;43.240;27.880;2023-11-21T04:55:54;99971.06;;;4.98;100.00
56270;BME280;42176;43.240;27.880;2023-11-21T04:57:55;99971.06;;;5.06;100.00
56270;BME280;42176;43.240;27.880;2023-11-21T04:59:55;99967.56;;;5.13;100.00
56270;BME280;42176;43.240;27.880;2023-11-21T05:01:56;99965.53;;;5.80;100.00
56270;BME280;42176;43.240;27.880;2023-11-21T05:03:56;99969.25;;;5.26;100.00
56270;BME280;42176;43.240;27.880;2023-11-21T05:05:57;99959.72;;;4.72;100.00
56270;BME280;42176;43.240;27.880;2023-11-21T05:07:57;99964.09;;;4.73;100.00
56270;BME280;42176;43.240;27.880;2023-11-21T05:09:58;99978.94;;;4.92;100.00
56270;BME280;42176;43.240;27.880;2023-11-21T05:11:58;99980.59;;;5.42;100.00
56270;BME280;42176;43.240;27.880;2023-11-21T05:14:00;99964.75;;;5.55;100.00
56270;BME280;42176;43.240;27.880;2023-11-21T05:16:02;99972.84;;;4.94;100.00
56270;BME280;42176;43.240;27.880;2023-11-21T05:18:07;99973.72;;;4.82;100.00
56270;BME280;42176;43.240;27.880;2023-11-21T05:20:09;99977.19;;;4.97;100.00
56270;BME280;42176;43.240;27.880;2023-11-21T05:22:10;99986.78;;;5.15;100.00
56270;BME280;42176;43.240;27.880;2023-11-21T05:24:11;99985.03;;;5.29;100.00
56270;BME280;42176;43.240;27.880;2023-11-21T05:26:12;99968.06;;;6.00;100.00
56270;BME280;42176;43.240;27.880;2023-11-21T05:28:13;99967.19;;;5.97;100.00
56270;BME280;42176;43.240;27.880;2023-11-21T05:30:13;99971.47;;;6.21;100.00
56270;BME280;42176;43.240;27.880;2023-11-21T05:32:14;99952.41;;;6.94;100.00
56270;BME280;42176;43.240;27.880;2023-11-21T05:34:15;99947.09;;;7.73;100.00
56270;BME280;42176;43.240;27.880;2023-11-21T05:36:15;99955.38;;;8.71;100.00
56270;BME280;42176;43.240;27.880;2023-11-21T05:38:16;99949.03;;;9.26;100.00
56270;BME280;42176;43.240;27.880;2023-11-21T05:40:16;99949.91;;;8.80;100.00
56270;BME280;42176;43.240;27.880;2023-11-21T05:42:17;99949.19;;;8.70;100.00
56270;BME280;42176;43.240;27.880;2023-11-21T05:44:17;99956.47;;;9.53;100.00
56270;BME280;42176;43.240;27.880;2023-11-21T05:46:18;99953.88;;;10.30;100.00
56270;BME280;42176;43.240;27.880;2023-11-21T05:48:18;99957.25;;;11.07;99.47
56270;BME280;42176;43.240;27.880;2023-11-21T05:50:19;99954.06;;;11.89;92.93
56270;BME280;42176;43.240;27.880;2023-11-21T05:52:20;99962.00;;;12.76;84.39
56270;BME280;42176;43.240;27.880;2023-11-21T05:54:21;99962.34;;;13.17;73.39
56270;BME280;42176;43.240;27.880;2023-11-21T05:56:23;99969.47;;;13.90;68.25
56270;BME280;42176;43.240;27.880;2023-11-21T05:58:24;99963.19;;;14.59;64.18
56270;BME280;42176;43.240;27.880;2023-11-21T06:00:25;99963.91;;;15.26;60.59
56270;BME280;42176;43.240;27.880;2023-11-21T06:02:25;99963.44;;;15.77;55.63
56270;BME280;42176;43.240;27.880;2023-11-21T06:04:26;99962.78;;;16.29;53.28
56270;BME280;42176;43.240;27.880;2023-11-21T06:06:26;99965.47;;;16.83;51.08
56270;BME280;42176;43.240;27.880;2023-11-21T06:08:27;99961.88;;;17.19;49.28
56270;BME280;42176;43.240;27.880;2023-11-21T06:10:27;99964.28;;;17.75;47.27
56270;BME280;42176;43.240;27.880;2023-11-21T06:12:28;99967.63;;;18.45;46.18
56270;BME280;42176;43.240;27.880;2023-11-21T06:14:29;99977.97;;;18.83;44.49
56270;BME280;42176;43.240;27.880;2023-11-21T06:16:30;99975.22;;;19.29;43.16
56270;BME280;42176;43.240;27.880;2023-11-21T06:18:30;99978.13;;;19.41;41.95
56270;BME280;42176;43.240;27.880;2023-11-21T06:20:31;99979.28;;;19.95;41.42
56270;BME280;42176;43.240;27.880;2023-11-21T06:22:32;99983.91;;;20.34;40.46
56270;BME280;42176;43.240;27.880;2023-11-21T06:24:35;99986.22;;;20.68;39.30
56270;BME280;42176;43.240;27.880;2023-11-21T06:26:35;99984.66;;;20.78;38.53
56270;BME280;42176;43.240;27.880;2023-11-21T06:28:36;99988.53;;;21.40;37.99
56270;BME280;42176;43.240;27.880;2023-11-21T06:30:36;99985.72;;;21.94;36.26
56270;BME280;42176;43.240;27.880;2023-11-21T06:32:38;99992.75;;;22.46;35.32
56270;BME280;42176;43.240;27.880;2023-11-21T06:34:39;99982.75;;;22.60;34.86
56270;BME280;42176;43.240;27.880;2023-11-21T06:36:40;99977.59;;;22.92;33.56
56270;BME280;42176;43.240;27.880;2023-11-21T06:38:41;99982.63;;;23.21;33.50
56270;BME280;42176;43.240;27.880;2023-11-21T06:40:41;99978.00;;;23.35;33.02
56270;BME280;42176;43.240;27.880;2023-11-21T06:42:42;99984.91;;;23.62;32.76
56270;BME280;42176;43.240;27.880;2023-11-21T06:44:45;99983.47;;;23.80;32.20
56270;BME280;42176;43.240;27.880;2023-11-21T06:46:45;99979.50;;;23.84;31.75
56270;BME280;42176;43.240;27.880;2023-11-21T06:48:46;99986.13;;;23.69;31.41
56270;BME280;42176;43.240;27.880;2023-11-21T06:50:46;99975.59;;;24.11;31.63
56270;BME280;42176;43.240;27.880;2023-11-21T06:52:47;99983.69;;;24.23;31.00
56270;BME280;42176;43.240;27.880;2023-11-21T06:54:48;99972.03;;;24.55;30.66
56270;BME280;42176;43.240;27.880;2023-11-21T06:56:52;99975.50;;;24.45;30.29
56270;BME280;42176;43.240;27.880;2023-11-21T06:58:53;99976.22;;;24.70;30.32
56270;BME280;42176;43.240;27.880;2023-11-21T07:00:54;99971.66;;;24.92;29.80
56270;BME280;42176;43.240;27.880;2023-11-21T07:02:55;99970.09;;;25.11;29.85
56270;BME280;42176;43.240;27.880;2023-11-21T07:04:55;99974.34;;;25.24;29.27
56270;BME280;42176;43.240;27.880;2023-11-21T07:06:56;99962.75;;;25.44;29.12
56270;BME280;42176;43.240;27.880;2023-11-21T07:08:56;99971.13;;;25.62;28.71
56270;BME280;42176;43.240;27.880;2023-11-21T07:10:57;99973.81;;;25.83;28.17
56270;BME280;42176;43.240;27.880;2023-11-21T07:12:57;99963.31;;;25.99;27.84
56270;BME280;42176;43.240;27.880;2023-11-21T07:14:58;99962.94;;;26.14;27.60
56270;BME280;42176;43.240;27.880;2023-11-21T07:16:59;99960.75;;;26.08;28.18
56270;BME280;42176;43.240;27.880;2023-11-21T07:18:59;99952.72;;;25.96;27.93
56270;BME280;42176;43.240;27.880;2023-11-21T07:21:00;99956.00;;;26.41;28.28
56270;BME280;42176;43.240;27.880;2023-11-21T07:23:00;99957.38;;;26.25;27.48
56270;BME280;42176;43.240;27.880;2023-11-21T07:25:01;99960.44;;;26.42;27.66
56270;BME280;42176;43.240;27.880;2023-11-21T07:27:02;99951.09;;;26.35;27.92
56270;BME280;42176;43.240;27.880;2023-11-21T07:29:04;99961.38;;;26.21;27.46
56270;BME280;42176;43.240;27.880;2023-11-21T07:31:06;99959.28;;;26.04;27.55
56270;BME280;42176;43.240;27.880;2023-11-21T07:33:06;99960.06;;;25.75;28.27
56270;BME280;42176;43.240;27.880;2023-11-21T07:35:08;99960.50;;;26.11;27.96
56270;BME280;42176;43.240;27.880;2023-11-21T07:37:08;99977.00;;;26.39;28.76
56270;BME280;42176;43.240;27.880;2023-11-21T07:39:11;99963.88;;;26.44;28.36
56270;BME280;42176;43.240;27.880;2023-11-21T07:41:12;99967.59;;;26.53;28.12
56270;BME280;42176;43.240;27.880;2023-11-21T07:43:16;99962.03;;;26.74;27.58
56270;BME280;42176;43.240;27.880;2023-11-21T07:45:16;99969.78;;;26.88;27.35
56270;BME280;42176;43.240;27.880;2023-11-21T07:47:17;99967.28;;;26.66;27.55
56270;BME280;42176;43.240;27.880;2023-11-21T07:49:17;99972.72;;;26.66;27.45
56270;BME280;42176;43.240;27.880;2023-11-21T07:51:20;99978.25;;;26.25;27.61
56270;BME280;42176;43.240;27.880;2023-11-21T07:53:22;99985.47;;;25.74;28.66
56270;BME280;42176;43.240;27.880;2023-11-21T07:55:22;99985.19;;;25.24;28.97
56270;BME280;42176;43.240;27.880;2023-11-21T07:57:25;99988.22;;;24.77;29.92
56270;BME280;42176;43.240;27.880;2023-11-21T07:59:26;99995.41;;;18.44;39.78
56270;BME280;42176;43.240;27.880;2023-11-21T08:01:26;99994.34;;;14.81;49.78
56270;BME280;42176;43.240;27.880;2023-11-21T08:03:28;99996.22;;;15.80;52.79
56270;BME280;42176;43.240;27.880;2023-11-21T08:05:30;99987.19;;;16.96;49.46
56270;BME280;42176;43.240;27.880;2023-11-21T08:07:31;99990.59;;;17.85;47.39
56270;BME280;42176;43.240;27.880;2023-11-21T08:09:31;99981.16;;;18.74;44.60
56270;BME280;42176;43.240;27.880;2023-11-21T08:11:31;99977.63;;;18.73;42.99
56270;BME280;42176;43.240;27.880;2023-11-21T08:13:33;99975.84;;;18.41;44.43
56270;BME280;42176;43.240;27.880;2023-11-21T08:15:33;99974.56;;;18.33;44.39
56270;BME280;42176;43.240;27.880;2023-11-21T08:17:34;99978.25;;;18.62;44.11
56270;BME280;42176;43.240;27.880;2023-11-21T08:19:36;99979.31;;;18.60;44.42
56270;BME280;42176;43.240;27.880;2023-11-21T08:21:37;99973.63;;;18.18;45.39
56270;BME280;42176;43.240;27.880;2023-11-21T08:23:39;99987.22;;;17.47;45.92
56270;BME280;42176;43.240;27.880;2023-11-21T08:25:39;99987.09;;;17.15;46.92
56270;BME280;42176;43.240;27.880;2023-11-21T08:27:40;99997.44;;;16.86;47.44
56270;BME280;42176;43.240;27.880;2023-11-21T08:29:41;99995.38;;;16.56;49.07
56270;BME280;42176;43.240;27.880;2023-11-21T08:31:42;99999.66;;;16.41;49.43
56270;BME280;42176;43.240;27.880;2023-11-21T08:33:42;99988.34;;;16.17;49.59
56270;BME280;42176;43.240;27.880;2023-11-21T08:35:43;99999.75;;;16.02;50.49
56270;BME280;42176;43.240;27.880;2023-11-21T08:37:44;99999.38;;;12.98;65.35
56270;BME280;42176;43.240;27.880;2023-11-21T08:39:45;100000.09;;;11.26;82.01
56270;BME280;42176;43.240;27.880;2023-11-21T08:41:45;99995.16;;;11.46;87.73
56270;BME280;42176;43.240;27.880;2023-11-21T08:43:50;99991.66;;;12.07;86.28
56270;BME280;42176;43.240;27.880;2023-11-21T08:45:51;99996.63;;;11.24;86.95
56270;BME280;42176;43.240;27.880;2023-11-21T08:47:52;99993.63;;;10.30;98.72
56270;BME280;42176;43.240;27.880;2023-11-21T08:49:52;99997.56;;;10.89;100.00
56270;BME280;42176;43.240;27.880;2023-11-21T08:51:53;99992.25;;;11.22;94.02
56270;BME280;42176;43.240;27.880;2023-11-21T08:53:55;99994.56;;;11.67;89.90
56270;BME280;42176;43.240;27.880;2023-11-21T08:55:59;99990.34;;;11.90;87.63
56270;BME280;42176;43.240;27.880;2023-11-21T08:58:00;99992.06;;;10.95;93.34
56270;BME280;42176;43.240;27.880;2023-11-21T09:00:04;99994.28;;;10.41;100.00
56270;BME280;42176;43.240;27.880;2023-11-21T09:02:11;99996.53;;;10.93;100.00
56270;BME280;42176;43.240;27.880;2023-11-21T09:04:12;99987.69;;;11.27;95.40
56270;BME280;42176;43.240;27.880;2023-11-21T09:06:13;99961.34;;;11.52;95.48
56270;BME280;42176;43.240;27.880;2023-11-21T09:08:14;99968.19;;;11.61;90.68
56270;BME280;42176;43.240;27.880;2023-11-21T09:10:14;99975.72;;;10.77;99.38
56270;BME280;42176;43.240;27.880;2023-11-21T09:12:15;99952.88;;;10.73;100.00
56270;BME280;42176;43.240;27.880;2023-11-21T09:14:17;99968.56;;;11.14;96.89
56270;BME280;42176;43.240;27.880;2023-11-21T09:16:18;99964.16;;;11.46;93.04
56270;BME280;42176;43.240;27.880;2023-11-21T09:18:18;99964.91;;;10.87;95.57
56270;BME280;42176;43.240;27.880;2023-11-21T09:20:19;99967.09;;;10.69;99.66
56270;BME280;42176;43.240;27.880;2023-11-21T09:22:23;99952.22;;;10.98;98.05
56270;BME280;42176;43.240;27.880;2023-11-21T09:24:25;99953.03;;;11.33;93.82
56270;BME280;42176;43.240;27.880;2023-11-21T09:26:26;99952.34;;;11.58;92.46
56270;BME280;42176;43.240;27.880;2023-11-21T09:28:27;99957.03;;;11.80;89.43
56270;BME280;42176;43.240;27.880;2023-11-21T09:30:27;99947.69;;;11.95;86.65
56270;BME280;42176;43.240;27.880;2023-11-21T09:32:28;99945.28;;;12.17;84.46
56270;BME280;42176;43.240;27.880;2023-11-21T09:34:29;99943.09;;;12.30;81.10
56270;BME280;42176;43.240;27.880;2023-11-21T09:36:30;99903.25;;;12.01;81.26
56270;BME280;42176;43.240;27.880;2023-11-21T09:38:31;99952.56;;;11.19;90.98
56270;BME280;42176;43.240;27.880;2023-11-21T09:40:31;99951.09;;;10.36;98.52
56270;BME280;42176;43.240;27.880;2023-11-21T09:42:36;99943.31;;;10.66;98.68
56270;BME280;42176;43.240;27.880;2023-11-21T09:44:46;99945.31;;;10.91;99.43
56270;BME280;42176;43.240;27.880;2023-11-21T09:46:48;99938.59;;;11.12;98.18
56270;BME280;42176;43.240;27.880;2023-11-21T09:48:55;99930.22;;;11.26;91.61
56270;BME280;42176;43.240;27.880;2023-11-21T09:50:59;99940.09;;;10.53;97.10
56270;BME280;42176;43.240;27.880;2023-11-21T09:53:19;99931.88;;;10.64;100.00
56270;BME280;42176;43.240;27.880;2023-11-21T09:55:21;99920.47;;;10.95;96.99
56270;BME280;42176;43.240;27.880;2023-11-21T09:57:23;99912.75;;;11.19;95.13
56270;BME280;42176;43.240;27.880;2023-11-21T09:59:23;99906.72;;;11.75;91.77
56270;BME280;42176;43.240;27.880;2023-11-21T10:01:25;99916.72;;;11.35;90.06
56270;BME280;42176;43.240;27.880;2023-11-21T10:03:26;99911.38;;;10.72;94.72
56270;BME280;42176;43.240;27.880;2023-11-21T10:05:28;99922.22;;;10.96;97.44
56270;BME280;42176;43.240;27.880;2023-11-21T10:07:31;99914.50;;;11.20;96.43
56270;BME280;42176;43.240;27.880;2023-11-21T10:09:32;99908.41;;;11.48;92.35
56270;BME280;42176;43.240;27.880;2023-11-21T10:11:33;99906.19;;;11.62;87.24
56270;BME280;42176;43.240;27.880;2023-11-21T10:13:34;99909.28;;;10.84;93.58
56270;BME280;42176;43.240;27.880;2023-11-21T10:15:35;99912.50;;;10.95;93.80
56270;BME280;42176;43.240;27.880;2023-11-21T10:17:38;99909.16;;;11.21;90.50
56270;BME280;42176;43.240;27.880;2023-11-21T10:19:43;99902.81;;;11.57;87.62
56270;BME280;42176;43.240;27.880;2023-11-21T10:21:47;99902.69;;;11.90;81.58
56270;BME280;42176;43.240;27.880;2023-11-21T10:23:48;99897.56;;;12.14;79.30
56270;BME280;42176;43.240;27.880;2023-11-21T10:25:50;99900.31;;;12.38;75.47
56270;BME280;42176;43.240;27.880;2023-11-21T10:27:57;99893.97;;;12.69;74.88
56270;BME280;42176;43.240;27.880;2023-11-21T10:30:01;99892.50;;;12.85;73.50
56270;BME280;42176;43.240;27.880;2023-11-21T10:32:02;99900.75;;;13.03;71.73
56270;BME280;42176;43.240;27.880;2023-11-21T10:34:17;99893.69;;;12.24;75.22